Main page
METAR-TAF:

METAR-TAF

Airports :

Norman Manley International Airport

Kingston, Jamaica

latitude: 17-56N, longitude: 076-47W, elevation: 3 m

Current weather observation

The report was made 1 hour and 0 minutes ago, at 21:00 UTC
Wind 22 kt from the Southeast
Temperature 32°C
Humidity 67%
Pressure 1013 hPa
Visibility 10 km or more
Few clouds at a height of 2400 ft

METAR: MKJP 172100Z 14022KT 9999 FEW024 32/25 Q1013

Time: 17:00 (22:00 UTC)

Forecast

The report was made 4 hours and 45 minutes ago, at 17:15 UTC
Forecast valid from 17 at 18 UTC to 18 at 18 UTC
Wind 20 kt from the Southeast
Visibility 10 km or more
Few clouds at a height of 2400 ft
Becoming
from 18 at 05 UTC to 18 at 07 UTC
Wind 6 kt from the North
Becoming
from 18 at 14 UTC to 18 at 16 UTC
Wind 18 kt from the Southeast

TAF: MKJP 171715Z 1718/1818 14020KT 9999 FEW024 BECMG 1805/1807 36006KT BECMG 1814/1816 14018KT

Weather observations and forecasts of more than 4000 airports (METAR and TAF reports).

The available stations are represented by yellow and red dots on the map.

Hover mouse over dot to see the name of the station.

Then click to see weather observations and forecasts.

To change the map : click on the green buttons with a black cross to zoom in, on the green button with a dash to zoom out, or on the green arrows for adjacent maps.


METAR-TAF: